sensor_id;sensor_type;location;lat;lon;timestamp;pressure;altitude;pressure_sealevel;temperature;humidity
28310;BME280;15571;50.974;13.936;2023-11-22T00:02:19;100733.81;;;4.14;100.00
28310;BME280;15571;50.974;13.936;2023-11-22T00:05:22;100738.00;;;4.41;100.00
28310;BME280;15571;50.974;13.936;2023-11-22T00:08:23;100737.31;;;4.47;100.00
28310;BME280;15571;50.974;13.936;2023-11-22T00:11:25;100734.00;;;4.85;100.00
28310;BME280;15571;50.974;13.936;2023-11-22T00:14:27;100740.16;;;4.24;100.00
28310;BME280;15571;50.974;13.936;2023-11-22T00:17:29;100744.38;;;4.20;100.00
28310;BME280;15571;50.974;13.936;2023-11-22T00:20:32;100747.13;;;3.67;100.00
28310;BME280;15571;50.974;13.936;2023-11-22T00:23:34;100756.47;;;3.64;100.00
28310;BME280;15571;50.974;13.936;2023-11-22T00:26:36;100767.63;;;3.61;100.00
28310;BME280;15571;50.974;13.936;2023-11-22T00:29:38;100763.72;;;3.47;100.00
28310;BME280;15571;50.974;13.936;2023-11-22T00:32:39;100759.28;;;3.99;100.00
28310;BME280;15571;50.974;13.936;2023-11-22T00:35:43;100763.44;;;3.94;100.00
28310;BME280;15571;50.974;13.936;2023-11-22T00:38:45;100757.78;;;4.07;100.00
28310;BME280;15571;50.974;13.936;2023-11-22T00:41:47;100765.94;;;3.91;100.00
28310;BME280;15571;50.974;13.936;2023-11-22T00:44:49;100764.88;;;3.56;100.00
28310;BME280;15571;50.974;13.936;2023-11-22T00:47:54;100773.34;;;4.07;100.00
28310;BME280;15571;50.974;13.936;2023-11-22T00:50:57;100772.53;;;4.10;100.00
28310;BME280;15571;50.974;13.936;2023-11-22T00:54:00;100781.94;;;4.06;100.00
28310;BME280;15571;50.974;13.936;2023-11-22T00:57:02;100791.56;;;3.54;100.00
28310;BME280;15571;50.974;13.936;2023-11-22T01:00:04;100782.31;;;3.89;100.00
28310;BME280;15571;50.974;13.936;2023-11-22T01:03:08;100789.41;;;3.68;100.00
28310;BME280;15571;50.974;13.936;2023-11-22T01:06:13;100795.31;;;3.64;100.00
28310;BME280;15571;50.974;13.936;2023-11-22T01:09:15;100803.19;;;3.67;100.00
28310;BME280;15571;50.974;13.936;2023-11-22T01:12:17;100812.00;;;3.72;100.00
28310;BME280;15571;50.974;13.936;2023-11-22T01:15:19;100806.59;;;4.22;100.00
28310;BME280;15571;50.974;13.936;2023-11-22T01:18:22;100817.06;;;3.96;100.00
28310;BME280;15571;50.974;13.936;2023-11-22T01:21:26;100812.81;;;3.71;100.00
28310;BME280;15571;50.974;13.936;2023-11-22T01:24:31;100816.16;;;3.68;100.00
28310;BME280;15571;50.974;13.936;2023-11-22T01:27:34;100827.47;;;3.98;100.00
28310;BME280;15571;50.974;13.936;2023-11-22T01:30:42;100831.75;;;3.42;100.00
28310;BME280;15571;50.974;13.936;2023-11-22T01:33:53;100837.63;;;3.38;100.00
28310;BME280;15571;50.974;13.936;2023-11-22T01:36:57;100844.13;;;3.79;100.00
28310;BME280;15571;50.974;13.936;2023-11-22T01:40:02;100845.66;;;3.46;100.00
28310;BME280;15571;50.974;13.936;2023-11-22T01:43:08;100843.06;;;3.20;100.00
28310;BME280;15571;50.974;13.936;2023-11-22T01:46:16;100847.63;;;3.53;100.00
28310;BME280;15571;50.974;13.936;2023-11-22T01:49:24;100845.16;;;4.11;100.00
28310;BME280;15571;50.974;13.936;2023-11-22T01:52:41;100844.41;;;3.88;100.00
28310;BME280;15571;50.974;13.936;2023-11-22T01:55:43;100843.94;;;3.72;100.00
28310;BME280;15571;50.974;13.936;2023-11-22T01:58:51;100846.59;;;4.03;100.00
28310;BME280;15571;50.974;13.936;2023-11-22T02:01:55;100839.91;;;3.82;100.00
28310;BME280;15571;50.974;13.936;2023-11-22T02:04:59;100854.63;;;4.11;100.00
28310;BME280;15571;50.974;13.936;2023-11-22T02:08:11;100865.53;;;4.28;100.00
28310;BME280;15571;50.974;13.936;2023-11-22T02:11:17;100858.50;;;3.96;100.00
28310;BME280;15571;50.974;13.936;2023-11-22T02:14:25;100858.03;;;3.82;100.00
28310;BME280;15571;50.974;13.936;2023-11-22T02:17:26;100868.66;;;3.90;100.00
28310;BME280;15571;50.974;13.936;2023-11-22T02:20:32;100871.75;;;4.05;100.00
28310;BME280;15571;50.974;13.936;2023-11-22T02:23:35;100866.91;;;3.62;100.00
28310;BME280;15571;50.974;13.936;2023-11-22T02:26:37;100858.22;;;3.87;100.00
28310;BME280;15571;50.974;13.936;2023-11-22T02:29:42;100869.16;;;3.78;100.00
28310;BME280;15571;50.974;13.936;2023-11-22T02:32:44;100866.81;;;3.86;100.00
28310;BME280;15571;50.974;13.936;2023-11-22T02:35:47;100863.78;;;3.72;100.00
28310;BME280;15571;50.974;13.936;2023-11-22T02:38:53;100867.41;;;3.51;100.00
28310;BME280;15571;50.974;13.936;2023-11-22T02:41:55;100875.56;;;3.89;100.00
28310;BME280;15571;50.974;13.936;2023-11-22T02:44:58;100890.09;;;4.13;100.00
28310;BME280;15571;50.974;13.936;2023-11-22T02:48:03;100894.00;;;3.99;100.00
28310;BME280;15571;50.974;13.936;2023-11-22T02:51:10;100888.06;;;4.03;100.00
28310;BME280;15571;50.974;13.936;2023-11-22T02:54:13;100893.09;;;3.98;100.00
28310;BME280;15571;50.974;13.936;2023-11-22T02:57:15;100905.41;;;4.33;100.00
28310;BME280;15571;50.974;13.936;2023-11-22T03:00:17;100902.94;;;3.31;100.00
28310;BME280;15571;50.974;13.936;2023-11-22T03:03:20;100909.94;;;3.34;100.00
28310;BME280;15571;50.974;13.936;2023-11-22T03:06:22;100905.00;;;3.66;100.00
28310;BME280;15571;50.974;13.936;2023-11-22T03:09:26;100902.81;;;3.78;100.00
28310;BME280;15571;50.974;13.936;2023-11-22T03:12:28;100911.06;;;3.94;100.00
28310;BME280;15571;50.974;13.936;2023-11-22T03:15:31;100910.88;;;3.87;100.00
28310;BME280;15571;50.974;13.936;2023-11-22T03:18:35;100916.16;;;3.65;100.00
28310;BME280;15571;50.974;13.936;2023-11-22T03:21:39;100916.06;;;3.87;100.00
28310;BME280;15571;50.974;13.936;2023-11-22T03:24:43;100911.94;;;3.67;100.00
28310;BME280;15571;50.974;13.936;2023-11-22T03:27:45;100914.47;;;4.18;100.00
28310;BME280;15571;50.974;13.936;2023-11-22T03:30:47;100915.72;;;4.31;100.00
28310;BME280;15571;50.974;13.936;2023-11-22T03:33:50;100916.47;;;4.00;100.00
28310;BME280;15571;50.974;13.936;2023-11-22T03:36:52;100929.47;;;4.01;100.00
28310;BME280;15571;50.974;13.936;2023-11-22T03:39:55;100941.41;;;3.70;100.00
28310;BME280;15571;50.974;13.936;2023-11-22T03:42:57;100946.41;;;3.40;100.00
28310;BME280;15571;50.974;13.936;2023-11-22T03:45:58;100962.47;;;3.31;100.00
28310;BME280;15571;50.974;13.936;2023-11-22T03:49:00;100969.72;;;3.17;100.00
28310;BME280;15571;50.974;13.936;2023-11-22T03:52:03;100978.09;;;3.10;100.00
28310;BME280;15571;50.974;13.936;2023-11-22T03:55:08;100980.09;;;3.17;100.00
28310;BME280;15571;50.974;13.936;2023-11-22T03:58:10;100983.41;;;3.37;100.00
28310;BME280;15571;50.974;13.936;2023-11-22T04:01:12;100994.97;;;3.00;100.00
28310;BME280;15571;50.974;13.936;2023-11-22T04:04:13;100990.38;;;3.64;100.00
28310;BME280;15571;50.974;13.936;2023-11-22T04:07:15;100994.91;;;3.21;100.00
28310;BME280;15571;50.974;13.936;2023-11-22T04:10:24;101008.28;;;2.87;100.00
28310;BME280;15571;50.974;13.936;2023-11-22T04:13:26;101007.34;;;3.07;100.00
28310;BME280;15571;50.974;13.936;2023-11-22T04:16:28;101016.88;;;3.08;100.00
28310;BME280;15571;50.974;13.936;2023-11-22T04:19:29;101021.38;;;2.91;100.00
28310;BME280;15571;50.974;13.936;2023-11-22T04:22:31;101031.00;;;3.41;100.00
28310;BME280;15571;50.974;13.936;2023-11-22T04:25:35;101040.19;;;2.87;100.00
28310;BME280;15571;50.974;13.936;2023-11-22T04:28:37;101040.31;;;3.13;100.00
28310;BME280;15571;50.974;13.936;2023-11-22T04:31:42;101044.16;;;3.24;100.00
28310;BME280;15571;50.974;13.936;2023-11-22T04:34:44;101055.53;;;3.05;100.00
28310;BME280;15571;50.974;13.936;2023-11-22T04:37:46;101058.53;;;3.16;100.00
28310;BME280;15571;50.974;13.936;2023-11-22T04:40:49;101065.75;;;3.48;100.00
28310;BME280;15571;50.974;13.936;2023-11-22T04:43:51;101067.09;;;3.61;100.00
28310;BME280;15571;50.974;13.936;2023-11-22T04:46:53;101060.94;;;2.68;100.00
28310;BME280;15571;50.974;13.936;2023-11-22T04:49:55;101068.00;;;3.16;100.00
28310;BME280;15571;50.974;13.936;2023-11-22T04:52:57;101083.78;;;3.46;100.00
28310;BME280;15571;50.974;13.936;2023-11-22T04:56:00;101088.84;;;3.43;100.00
28310;BME280;15571;50.974;13.936;2023-11-22T04:59:05;101095.44;;;2.89;100.00
28310;BME280;15571;50.974;13.936;2023-11-22T05:02:07;101098.97;;;2.91;100.00
28310;BME280;15571;50.974;13.936;2023-11-22T05:05:09;101112.34;;;2.60;100.00
28310;BME280;15571;50.974;13.936;2023-11-22T05:08:12;101110.28;;;2.51;100.00
28310;BME280;15571;50.974;13.936;2023-11-22T05:11:15;101104.84;;;2.66;100.00
28310;BME280;15571;50.974;13.936;2023-11-22T05:14:17;101105.28;;;2.35;100.00
28310;BME280;15571;50.974;13.936;2023-11-22T05:17:19;101117.13;;;2.51;100.00
28310;BME280;15571;50.974;13.936;2023-11-22T05:20:20;101108.63;;;3.18;100.00
28310;BME280;15571;50.974;13.936;2023-11-22T05:23:22;101113.66;;;2.92;100.00
28310;BME280;15571;50.974;13.936;2023-11-22T05:26:25;101122.59;;;2.79;100.00
28310;BME280;15571;50.974;13.936;2023-11-22T05:29:27;101127.47;;;2.93;100.00
28310;BME280;15571;50.974;13.936;2023-11-22T05:32:29;101122.03;;;2.65;100.00
28310;BME280;15571;50.974;13.936;2023-11-22T05:35:31;101122.16;;;2.90;100.00
28310;BME280;15571;50.974;13.936;2023-11-22T05:38:33;101119.34;;;3.27;100.00
28310;BME280;15571;50.974;13.936;2023-11-22T05:41:36;101131.19;;;2.57;100.00
28310;BME280;15571;50.974;13.936;2023-11-22T05:44:38;101117.63;;;2.84;100.00
28310;BME280;15571;50.974;13.936;2023-11-22T05:47:40;101121.59;;;3.41;100.00
28310;BME280;15571;50.974;13.936;2023-11-22T05:50:43;101117.31;;;3.43;100.00
28310;BME280;15571;50.974;13.936;2023-11-22T05:53:46;101129.88;;;2.67;100.00
28310;BME280;15571;50.974;13.936;2023-11-22T05:56:49;101120.13;;;3.04;100.00
28310;BME280;15571;50.974;13.936;2023-11-22T05:59:51;101121.56;;;2.74;100.00
28310;BME280;15571;50.974;13.936;2023-11-22T06:02:53;101122.41;;;2.75;100.00
28310;BME280;15571;50.974;13.936;2023-11-22T06:05:56;101120.88;;;3.22;100.00
28310;BME280;15571;50.974;13.936;2023-11-22T06:08:58;101127.38;;;3.13;100.00
28310;BME280;15571;50.974;13.936;2023-11-22T06:12:02;101131.31;;;3.25;100.00
28310;BME280;15571;50.974;13.936;2023-11-22T06:15:04;101141.75;;;2.83;100.00
28310;BME280;15571;50.974;13.936;2023-11-22T06:18:06;101137.69;;;3.11;100.00
28310;BME280;15571;50.974;13.936;2023-11-22T06:21:07;101152.03;;;3.25;100.00
28310;BME280;15571;50.974;13.936;2023-11-22T06:24:09;101162.91;;;2.53;100.00
28310;BME280;15571;50.974;13.936;2023-11-22T06:27:17;101159.16;;;3.31;100.00
28310;BME280;15571;50.974;13.936;2023-11-22T06:30:21;101162.66;;;3.10;100.00
28310;BME280;15571;50.974;13.936;2023-11-22T06:33:23;101173.44;;;3.21;100.00
28310;BME280;15571;50.974;13.936;2023-11-22T06:36:25;101186.94;;;3.14;100.00
28310;BME280;15571;50.974;13.936;2023-11-22T06:39:27;101185.25;;;2.72;100.00
28310;BME280;15571;50.974;13.936;2023-11-22T06:42:33;101203.72;;;2.41;100.00
28310;BME280;15571;50.974;13.936;2023-11-22T06:45:35;101226.31;;;2.45;100.00
28310;BME280;15571;50.974;13.936;2023-11-22T06:48:39;101242.16;;;3.15;100.00
28310;BME280;15571;50.974;13.936;2023-11-22T06:51:43;101224.13;;;3.37;100.00
28310;BME280;15571;50.974;13.936;2023-11-22T06:54:45;101207.25;;;3.05;100.00
28310;BME280;15571;50.974;13.936;2023-11-22T06:57:52;101200.59;;;3.10;100.00
28310;BME280;15571;50.974;13.936;2023-11-22T07:00:54;101201.09;;;3.45;100.00
28310;BME280;15571;50.974;13.936;2023-11-22T07:03:56;101222.28;;;3.14;100.00
28310;BME280;15571;50.974;13.936;2023-11-22T07:06:58;101242.56;;;3.03;100.00
28310;BME280;15571;50.974;13.936;2023-11-22T07:10:01;101243.88;;;3.58;100.00
28310;BME280;15571;50.974;13.936;2023-11-22T07:13:04;101250.88;;;3.17;100.00
28310;BME280;15571;50.974;13.936;2023-11-22T07:16:07;101259.44;;;2.94;100.00
28310;BME280;15571;50.974;13.936;2023-11-22T07:19:10;101246.81;;;3.23;100.00
28310;BME280;15571;50.974;13.936;2023-11-22T07:22:14;101236.63;;;3.05;100.00
28310;BME280;15571;50.974;13.936;2023-11-22T07:25:19;101228.63;;;3.43;100.00
28310;BME280;15571;50.974;13.936;2023-11-22T07:28:26;101227.66;;;3.18;100.00
28310;BME280;15571;50.974;13.936;2023-11-22T07:31:28;101228.03;;;3.06;100.00
28310;BME280;15571;50.974;13.936;2023-11-22T07:34:30;101223.16;;;3.35;100.00
28310;BME280;15571;50.974;13.936;2023-11-22T07:37:32;101237.09;;;3.39;100.00
28310;BME280;15571;50.974;13.936;2023-11-22T07:40:34;101235.84;;;3.50;100.00
28310;BME280;15571;50.974;13.936;2023-11-22T07:43:45;101244.06;;;2.98;100.00
28310;BME280;15571;50.974;13.936;2023-11-22T07:46:47;101251.00;;;3.41;100.00
28310;BME280;15571;50.974;13.936;2023-11-22T07:49:49;101253.28;;;3.77;100.00
28310;BME280;15571;50.974;13.936;2023-11-22T07:52:51;101268.00;;;3.78;100.00
28310;BME280;15571;50.974;13.936;2023-11-22T07:55:53;101262.09;;;4.05;100.00
28310;BME280;15571;50.974;13.936;2023-11-22T07:58:58;101273.28;;;3.81;100.00
28310;BME280;15571;50.974;13.936;2023-11-22T08:02:01;101279.19;;;4.00;100.00
28310;BME280;15571;50.974;13.936;2023-11-22T08:05:10;101293.00;;;3.14;100.00
28310;BME280;15571;50.974;13.936;2023-11-22T08:08:16;101294.63;;;2.91;100.00
28310;BME280;15571;50.974;13.936;2023-11-22T08:11:17;101296.56;;;3.16;100.00
28310;BME280;15571;50.974;13.936;2023-11-22T08:14:26;101302.81;;;2.80;100.00
28310;BME280;15571;50.974;13.936;2023-11-22T08:17:28;101307.91;;;2.79;100.00
28310;BME280;15571;50.974;13.936;2023-11-22T08:20:30;101312.84;;;2.73;100.00
28310;BME280;15571;50.974;13.936;2023-11-22T08:23:31;101320.06;;;3.42;100.00
28310;BME280;15571;50.974;13.936;2023-11-22T08:26:33;101319.47;;;2.48;100.00
28310;BME280;15571;50.974;13.936;2023-11-22T08:29:37;101314.53;;;2.72;100.00
28310;BME280;15571;50.974;13.936;2023-11-22T08:32:39;101312.09;;;3.16;100.00
28310;BME280;15571;50.974;13.936;2023-11-22T08:35:41;101313.06;;;3.61;100.00
28310;BME280;15571;50.974;13.936;2023-11-22T08:38:46;101310.47;;;3.61;100.00
28310;BME280;15571;50.974;13.936;2023-11-22T08:41:47;101319.41;;;3.69;100.00
28310;BME280;15571;50.974;13.936;2023-11-22T08:44:52;101325.34;;;3.87;100.00
28310;BME280;15571;50.974;13.936;2023-11-22T08:47:54;101319.78;;;3.78;100.00
28310;BME280;15571;50.974;13.936;2023-11-22T08:50:55;101321.69;;;3.40;100.00
28310;BME280;15571;50.974;13.936;2023-11-22T08:53:57;101330.28;;;3.39;100.00
28310;BME280;15571;50.974;13.936;2023-11-22T08:56:59;101329.66;;;3.04;100.00
28310;BME280;15571;50.974;13.936;2023-11-22T09:00:03;101315.38;;;3.54;100.00
28310;BME280;15571;50.974;13.936;2023-11-22T09:03:09;101303.88;;;3.69;100.00
28310;BME280;15571;50.974;13.936;2023-11-22T09:06:13;101313.28;;;3.67;100.00
28310;BME280;15571;50.974;13.936;2023-11-22T09:09:15;101302.13;;;3.68;100.00
28310;BME280;15571;50.974;13.936;2023-11-22T09:12:17;101314.81;;;3.40;100.00
28310;BME280;15571;50.974;13.936;2023-11-22T09:15:21;101308.44;;;3.53;100.00
28310;BME280;15571;50.974;13.936;2023-11-22T09:18:26;101323.72;;;3.47;100.00
28310;BME280;15571;50.974;13.936;2023-11-22T09:21:28;101324.91;;;3.77;100.00
28310;BME280;15571;50.974;13.936;2023-11-22T09:24:30;101334.88;;;3.25;100.00
28310;BME280;15571;50.974;13.936;2023-11-22T09:27:31;101335.47;;;3.39;100.00
28310;BME280;15571;50.974;13.936;2023-11-22T09:30:35;101333.38;;;3.51;100.00
28310;BME280;15571;50.974;13.936;2023-11-22T09:33:39;101346.81;;;3.64;100.00
28310;BME280;15571;50.974;13.936;2023-11-22T09:36:40;101358.53;;;3.13;100.00
28310;BME280;15571;50.974;13.936;2023-11-22T09:39:42;101349.84;;;3.53;100.00
28310;BME280;15571;50.974;13.936;2023-11-22T09:42:45;101346.69;;;3.18;100.00
28310;BME280;15571;50.974;13.936;2023-11-22T09:45:52;101352.16;;;3.46;100.00
28310;BME280;15571;50.974;13.936;2023-11-22T09:48:55;101340.25;;;3.08;100.00
28310;BME280;15571;50.974;13.936;2023-11-22T09:51:57;101327.88;;;3.65;100.00
28310;BME280;15571;50.974;13.936;2023-11-22T09:55:03;101324.91;;;3.77;100.00
28310;BME280;15571;50.974;13.936;2023-11-22T09:58:06;101324.97;;;3.15;100.00
28310;BME280;15571;50.974;13.936;2023-11-22T10:01:09;101324.03;;;3.55;100.00
28310;BME280;15571;50.974;13.936;2023-11-22T10:04:13;101327.59;;;3.80;100.00
28310;BME280;15571;50.974;13.936;2023-11-22T10:07:15;101322.28;;;3.98;100.00
28310;BME280;15571;50.974;13.936;2023-11-22T10:10:19;101317.31;;;4.04;100.00
28310;BME280;15571;50.974;13.936;2023-11-22T10:13:26;101328.28;;;3.97;100.00
28310;BME280;15571;50.974;13.936;2023-11-22T10:16:33;101329.16;;;3.74;100.00
28310;BME280;15571;50.974;13.936;2023-11-22T10:19:35;101324.63;;;4.14;100.00
28310;BME280;15571;50.974;13.936;2023-11-22T10:22:45;101328.88;;;4.12;100.00
28310;BME280;15571;50.974;13.936;2023-11-22T10:25:48;101327.81;;;4.07;100.00
28310;BME280;15571;50.974;13.936;2023-11-22T10:28:52;101329.81;;;4.14;100.00
28310;BME280;15571;50.974;13.936;2023-11-22T10:31:58;101330.88;;;3.97;100.00
28310;BME280;15571;50.974;13.936;2023-11-22T10:35:04;101323.63;;;3.88;100.00
28310;BME280;15571;50.974;13.936;2023-11-22T10:38:10;101317.31;;;4.04;100.00
28310;BME280;15571;50.974;13.936;2023-11-22T10:41:15;101315.25;;;3.09;100.00
28310;BME280;15571;50.974;13.936;2023-11-22T10:44:18;101320.56;;;3.33;100.00
28310;BME280;15571;50.974;13.936;2023-11-22T10:47:25;101308.28;;;3.71;100.00
28310;BME280;15571;50.974;13.936;2023-11-22T10:50:30;101305.03;;;3.33;100.00
28310;BME280;15571;50.974;13.936;2023-11-22T10:53:33;101307.69;;;3.56;100.00
28310;BME280;15571;50.974;13.936;2023-11-22T10:56:39;101307.09;;;3.21;100.00
28310;BME280;15571;50.974;13.936;2023-11-22T10:59:42;101317.41;;;3.62;100.00
28310;BME280;15571;50.974;13.936;2023-11-22T11:02:46;101312.59;;;3.29;100.00
28310;BME280;15571;50.974;13.936;2023-11-22T11:05:50;101310.09;;;3.51;100.00
28310;BME280;15571;50.974;13.936;2023-11-22T11:08:54;101312.91;;;4.01;100.00
28310;BME280;15571;50.974;13.936;2023-11-22T11:11:56;101323.78;;;3.70;100.00
28310;BME280;15571;50.974;13.936;2023-11-22T11:14:58;101336.16;;;3.77;100.00
28310;BME280;15571;50.974;13.936;2023-11-22T11:18:04;101349.16;;;4.00;100.00
28310;BME280;15571;50.974;13.936;2023-11-22T11:21:07;101358.97;;;4.31;100.00
28310;BME280;15571;50.974;13.936;2023-11-22T11:24:09;101371.31;;;3.93;100.00
28310;BME280;15571;50.974;13.936;2023-11-22T11:27:11;101385.22;;;3.32;100.00
28310;BME280;15571;50.974;13.936;2023-11-22T11:36:57;101396.41;;;3.11;100.00
28310;BME280;15571;50.974;13.936;2023-11-22T11:40:01;101400.97;;;2.97;100.00
28310;BME280;15571;50.974;13.936;2023-11-22T11:43:04;101399.50;;;2.84;100.00
28310;BME280;15571;50.974;13.936;2023-11-22T11:46:06;101384.00;;;2.64;100.00
28310;BME280;15571;50.974;13.936;2023-11-22T11:49:12;101386.06;;;2.91;100.00
28310;BME280;15571;50.974;13.936;2023-11-22T11:52:15;101384.22;;;3.49;100.00
28310;BME280;15571;50.974;13.936;2023-11-22T11:55:18;101379.09;;;3.10;100.00
28310;BME280;15571;50.974;13.936;2023-11-22T11:58:20;101386.63;;;3.45;100.00
28310;BME280;15571;50.974;13.936;2023-11-22T12:01:24;101387.75;;;3.51;100.00
28310;BME280;15571;50.974;13.936;2023-11-22T12:04:26;101377.16;;;3.25;100.00
28310;BME280;15571;50.974;13.936;2023-11-22T12:07:29;101377.84;;;3.41;100.00
28310;BME280;15571;50.974;13.936;2023-11-22T12:10:31;101372.16;;;3.09;100.00
28310;BME280;15571;50.974;13.936;2023-11-22T12:13:34;101375.94;;;3.37;100.00
28310;BME280;15571;50.974;13.936;2023-11-22T12:16:38;101379.63;;;3.63;100.00
28310;BME280;15571;50.974;13.936;2023-11-22T12:19:40;101373.63;;;3.64;100.00
28310;BME280;15571;50.974;13.936;2023-11-22T12:22:45;101360.22;;;3.53;100.00
28310;BME280;15571;50.974;13.936;2023-11-22T12:25:47;101342.38;;;3.82;100.00
28310;BME280;15571;50.974;13.936;2023-11-22T12:28:50;101341.47;;;3.80;100.00
28310;BME280;15571;50.974;13.936;2023-11-22T12:31:54;101341.25;;;3.12;100.00
28310;BME280;15571;50.974;13.936;2023-11-22T12:34:57;101329.91;;;3.51;100.00
28310;BME280;15571;50.974;13.936;2023-11-22T12:38:01;101332.59;;;3.75;100.00
28310;BME280;15571;50.974;13.936;2023-11-22T12:41:03;101342.66;;;3.88;100.00
28310;BME280;15571;50.974;13.936;2023-11-22T12:44:07;101321.34;;;4.18;100.00
28310;BME280;15571;50.974;13.936;2023-11-22T12:47:08;101321.22;;;4.38;100.00
28310;BME280;15571;50.974;13.936;2023-11-22T12:50:19;101323.94;;;4.18;100.00
28310;BME280;15571;50.974;13.936;2023-11-22T12:53:32;101315.34;;;3.97;100.00
28310;BME280;15571;50.974;13.936;2023-11-22T12:56:34;101303.03;;;4.14;100.00
28310;BME280;15571;50.974;13.936;2023-11-22T12:59:36;101310.63;;;4.09;100.00
28310;BME280;15571;50.974;13.936;2023-11-22T13:02:38;101318.31;;;4.08;100.00
28310;BME280;15571;50.974;13.936;2023-11-22T13:05:40;101312.69;;;3.95;100.00
28310;BME280;15571;50.974;13.936;2023-11-22T13:08:44;101297.72;;;4.11;100.00
28310;BME280;15571;50.974;13.936;2023-11-22T13:11:46;101304.25;;;4.24;100.00
28310;BME280;15571;50.974;13.936;2023-11-22T13:14:50;101309.69;;;4.30;100.00
28310;BME280;15571;50.974;13.936;2023-11-22T13:17:52;101304.38;;;3.81;100.00
28310;BME280;15571;50.974;13.936;2023-11-22T13:20:55;101300.72;;;3.76;100.00
28310;BME280;15571;50.974;13.936;2023-11-22T13:23:59;101310.06;;;3.72;100.00
28310;BME280;15571;50.974;13.936;2023-11-22T13:27:04;101304.25;;;3.78;100.00
28310;BME280;15571;50.974;13.936;2023-11-22T13:30:06;101304.38;;;3.81;100.00
28310;BME280;15571;50.974;13.936;2023-11-22T13:33:10;101303.16;;;3.73;100.00
28310;BME280;15571;50.974;13.936;2023-11-22T13:36:16;101306.50;;;3.92;100.00
28310;BME280;15571;50.974;13.936;2023-11-22T13:39:19;101328.06;;;3.69;100.00
28310;BME280;15571;50.974;13.936;2023-11-22T13:42:21;101321.06;;;3.67;100.00
28310;BME280;15571;50.974;13.936;2023-11-22T13:45:23;101326.19;;;3.88;100.00
28310;BME280;15571;50.974;13.936;2023-11-22T13:48:27;101328.34;;;3.98;100.00
28310;BME280;15571;50.974;13.936;2023-11-22T13:51:30;101332.09;;;4.07;100.00
28310;BME280;15571;50.974;13.936;2023-11-22T13:54:33;101343.72;;;4.16;100.00
28310;BME280;15571;50.974;13.936;2023-11-22T13:57:38;101344.59;;;4.17;100.00
28310;BME280;15571;50.974;13.936;2023-11-22T14:00:43;101338.59;;;4.18;100.00
28310;BME280;15571;50.974;13.936;2023-11-22T14:03:48;101327.69;;;4.04;100.00
28310;BME280;15571;50.974;13.936;2023-11-22T14:06:50;101329.31;;;3.79;100.00
28310;BME280;15571;50.974;13.936;2023-11-22T14:09:54;101338.88;;;3.38;100.00
28310;BME280;15571;50.974;13.936;2023-11-22T14:12:58;101357.06;;;3.61;100.00
28310;BME280;15571;50.974;13.936;2023-11-22T14:16:02;101357.94;;;3.40;100.00
28310;BME280;15571;50.974;13.936;2023-11-22T14:19:05;101355.94;;;3.54;100.00
28310;BME280;15571;50.974;13.936;2023-11-22T14:22:07;101344.66;;;3.96;100.00
28310;BME280;15571;50.974;13.936;2023-11-22T14:25:15;101327.56;;;3.78;100.00
28310;BME280;15571;50.974;13.936;2023-11-22T14:28:17;101301.66;;;4.24;100.00
28310;BME280;15571;50.974;13.936;2023-11-22T14:31:20;101308.09;;;4.11;100.00
28310;BME280;15571;50.974;13.936;2023-11-22T14:34:24;101316.38;;;4.02;100.00
28310;BME280;15571;50.974;13.936;2023-11-22T14:37:27;101318.22;;;4.04;100.00
28310;BME280;15571;50.974;13.936;2023-11-22T14:40:30;101322.41;;;4.01;100.00
28310;BME280;15571;50.974;13.936;2023-11-22T14:43:33;101312.97;;;4.03;100.00
28310;BME280;15571;50.974;13.936;2023-11-22T14:46:38;101318.09;;;4.01;100.00
28310;BME280;15571;50.974;13.936;2023-11-22T14:49:40;101305.19;;;4.03;100.00
28310;BME280;15571;50.974;13.936;2023-11-22T14:52:42;101298.63;;;4.11;100.00
28310;BME280;15571;50.974;13.936;2023-11-22T14:55:46;101299.19;;;4.27;100.00
28310;BME280;15571;50.974;13.936;2023-11-22T14:58:48;101288.16;;;4.32;100.00
28310;BME280;15571;50.974;13.936;2023-11-22T15:01:54;101285.75;;;4.37;100.00
28310;BME280;15571;50.974;13.936;2023-11-22T15:04:57;101290.47;;;4.25;100.00
28310;BME280;15571;50.974;13.936;2023-11-22T15:08:02;101304.69;;;4.12;100.00
28310;BME280;15571;50.974;13.936;2023-11-22T15:11:05;101297.19;;;3.97;100.00
28310;BME280;15571;50.974;13.936;2023-11-22T15:14:08;101297.78;;;4.12;100.00
28310;BME280;15571;50.974;13.936;2023-11-22T15:17:10;101310.44;;;4.27;100.00
28310;BME280;15571;50.974;13.936;2023-11-22T15:20:14;101325.06;;;4.25;100.00
28310;BME280;15571;50.974;13.936;2023-11-22T15:23:17;101341.34;;;4.45;100.00
28310;BME280;15571;50.974;13.936;2023-11-22T15:26:22;101343.13;;;4.46;100.00
28310;BME280;15571;50.974;13.936;2023-11-22T15:29:24;101350.13;;;4.49;100.00
28310;BME280;15571;50.974;13.936;2023-11-22T15:32:26;101348.47;;;4.51;100.00
28310;BME280;15571;50.974;13.936;2023-11-22T15:35:28;101330.97;;;4.45;100.00
28310;BME280;15571;50.974;13.936;2023-11-22T15:38:33;101336.38;;;4.51;100.00
28310;BME280;15571;50.974;13.936;2023-11-22T15:41:37;101337.34;;;4.54;100.00
28310;BME280;15571;50.974;13.936;2023-11-22T15:44:39;101338.44;;;4.60;100.00
28310;BME280;15571;50.974;13.936;2023-11-22T15:47:42;101335.69;;;4.56;100.00
28310;BME280;15571;50.974;13.936;2023-11-22T15:50:48;101332.41;;;4.60;100.00
28310;BME280;15571;50.974;13.936;2023-11-22T15:53:50;101345.97;;;4.30;100.00